Time;durP1;ratioP1;P1;durP2;ratioP2;P2;SDS_P1;SDS_P2;PMS_P1;PMS_P2;Temp;Humidity;BMP_temperature;BMP_pressure;BME280_temperature;BME280_humidity;BME280_pressure;Samples;Min_cycle;Max_cycle;Signal;HPM_P1;HPM_P2
2024/03/03 05:00:43;;;;;;;4.70;4.17;;;5.00;97.30;;;;;;5917328;23;21083;-85
2024/03/03 05:03:51;;;;;;;1.80;1.70;;;4.90;97.30;;;;;;4869433;29;20446;-86
2024/03/03 05:06:43;;;;;;;4.83;4.57;;;4.90;97.30;;;;;;4871888;29;20884;-86
2024/03/03 05:09:33;;;;;;;;;;;;;;;;;;;;;
2024/03/03 05:16:02;;;;;;;6.67;6.10;;;4.80;97.30;;;;;;4804985;29;20437;-85
2024/03/03 05:19:12;;;;;;;8.07;4.27;;;4.80;97.30;;;;;;4801234;29;20495;-85
2024/03/03 05:21:37;;;;;;;6.43;4.00;;;4.80;97.30;;;;;;4850281;23;20497;-63
2024/03/03 05:24:03;;;;;;;5.17;3.50;;;4.80;97.30;;;;;;4912495;29;20429;-62
2024/03/03 05:26:30;;;;;;;3.93;2.93;;;4.70;97.30;;;;;;4906255;29;20233;-62
2024/03/03 05:28:56;;;;;;;8.27;4.03;;;4.70;97.30;;;;;;4902930;29;20442;-62
2024/03/03 05:31:21;;;;;;;7.90;6.07;;;4.80;97.30;;;;;;4896505;29;20646;-62
2024/03/03 05:33:47;;;;;;;3.30;2.47;;;4.80;97.30;;;;;;4895423;29;20215;-63
2024/03/03 05:36:15;;;;;;;2.70;2.50;;;4.90;97.30;;;;;;4902419;29;20240;-63
2024/03/03 05:38:41;;;;;;;10.23;5.77;;;4.90;97.30;;;;;;4917579;29;20205;-63
2024/03/03 05:41:06;;;;;;;18.57;6.70;;;4.90;97.30;;;;;;4902395;29;20484;-65
2024/03/03 05:43:32;;;;;;;2.60;2.40;;;5.00;97.30;;;;;;4893335;29;20264;-65
2024/03/03 05:45:57;;;;;;;6.87;6.50;;;5.00;97.30;;;;;;4905865;29;20208;-65
2024/03/03 05:48:23;;;;;;;9.97;5.10;;;5.00;97.30;;;;;;4894799;29;20181;-65
2024/03/03 05:50:49;;;;;;;4.33;3.53;;;5.10;97.30;;;;;;4908833;29;20235;-65
2024/03/03 05:53:14;;;;;;;4.33;4.03;;;5.10;97.30;;;;;;4906529;29;20188;-65
2024/03/03 05:55:40;;;;;;;6.80;6.13;;;5.10;97.30;;;;;;4898003;29;20622;-65
2024/03/03 05:58:05;;;;;;;6.20;3.80;;;5.10;97.30;;;;;;4904868;29;20660;-65
2024/03/03 06:00:31;;;;;;;2.53;2.33;;;5.10;97.30;;;;;;4908597;29;20680;-65
2024/03/03 06:02:57;;;;;;;3.80;3.43;;;5.10;97.30;;;;;;4913167;29;20205;-65
2024/03/03 06:05:22;;;;;;;8.57;5.20;;;5.10;97.30;;;;;;4920006;29;20715;-65
2024/03/03 06:07:48;;;;;;;10.27;4.77;;;5.10;97.30;;;;;;4922428;29;20176;-65
2024/03/03 06:10:14;;;;;;;2.50;2.30;;;5.10;97.30;;;;;;4917840;29;20188;-65
2024/03/03 06:12:39;;;;;;;6.70;5.70;;;5.20;97.30;;;;;;4914751;29;20177;-65
2024/03/03 06:15:05;;;;;;;12.27;4.77;;;5.20;97.30;;;;;;4901521;29;20437;-65
2024/03/03 06:17:31;;;;;;;11.67;3.37;;;5.20;97.30;;;;;;4897226;29;20181;-65
2024/03/03 06:19:56;;;;;;;4.77;4.47;;;5.20;97.30;;;;;;4897337;29;20439;-65
2024/03/03 06:22:22;;;;;;;6.60;5.93;;;5.20;97.30;;;;;;4897275;29;20237;-65
2024/03/03 06:24:47;;;;;;;3.83;3.63;;;5.20;97.30;;;;;;4909810;29;20216;-65
2024/03/03 06:27:13;;;;;;;2.80;2.60;;;5.30;97.30;;;;;;4904409;29;20209;-65
2024/03/03 06:29:39;;;;;;;2.17;2.00;;;5.30;97.30;;;;;;4904080;29;20189;-65
2024/03/03 06:32:04;;;;;;;5.23;3.97;;;5.40;97.30;;;;;;4905469;29;20212;-65
2024/03/03 06:34:30;;;;;;;4.00;3.80;;;5.40;97.30;;;;;;4908994;29;20600;-64
2024/03/03 06:36:55;;;;;;;4.33;3.30;;;5.40;97.30;;;;;;4898754;29;20272;-65
2024/03/03 06:39:21;;;;;;;4.83;4.00;;;5.50;97.30;;;;;;4900903;29;20604;-65
2024/03/03 06:41:46;;;;;;;3.07;2.87;;;5.60;97.30;;;;;;4895503;29;20204;-65
2024/03/03 06:44:16;;;;;;;6.70;5.17;;;5.60;97.30;;;;;;4895470;29;20645;-65
2024/03/03 06:46:53;;;;;;;6.13;5.30;;;5.60;97.30;;;;;;4914284;23;21277;-84
2024/03/03 06:49:33;;;;;;;9.57;3.67;;;5.70;97.30;;;;;;4882371;29;20425;-84
2024/03/03 06:52:03;;;;;;;7.70;5.40;;;5.70;97.30;;;;;;4896146;29;20425;-84
2024/03/03 06:54:31;;;;;;;3.47;2.67;;;5.80;97.30;;;;;;4884282;29;20422;-84
2024/03/03 06:57:02;;;;;;;8.40;4.23;;;5.90;97.30;;;;;;4875814;29;20443;-83
2024/03/03 06:59:34;;;;;;;11.00;3.10;;;6.00;97.30;;;;;;4877219;29;20418;-84
2024/03/03 07:02:02;;;;;;;3.00;2.80;;;6.00;97.30;;;;;;4878071;29;20419;-84
2024/03/03 07:05:02;;;;;;;43.13;4.60;;;6.10;97.30;;;;;;4878929;29;20819;-84
2024/03/03 07:07:54;;;;;;;;;;;;;;;;;;;;;
2024/03/03 07:10:22;;;;;;;6.53;3.30;;;6.30;97.30;;;;;;4879498;29;20448;-84
2024/03/03 07:12:53;;;;;;;6.20;5.90;;;6.40;97.30;;;;;;4877801;29;20462;-84
2024/03/03 07:15:54;;;;;;;7.97;4.60;;;6.50;97.30;;;;;;4878439;29;20482;-84
2024/03/03 07:18:22;;;;;;;5.00;4.70;;;6.60;97.30;;;;;;4883742;29;20461;-84
2024/03/03 07:21:03;;;;;;;6.37;3.30;;;6.80;97.30;;;;;;4877977;29;20445;-84
2024/03/03 07:23:41;;;;;;;3.37;3.17;;;6.90;97.30;;;;;;4878868;29;20441;-84
2024/03/03 07:26:43;;;;;;;4.13;3.80;;;7.10;97.30;;;;;;4879250;29;20540;-83
2024/03/03 07:29:23;;;;;;;7.37;5.33;;;7.20;97.30;;;;;;4875331;29;20441;-84
2024/03/03 07:31:54;;;;;;;4.13;3.20;;;7.40;97.30;;;;;;4874252;29;20434;-84
2024/03/03 07:34:22;;;;;;;5.00;4.70;;;7.50;97.30;;;;;;4877519;29;20430;-84
2024/03/03 07:36:54;;;;;;;4.40;3.23;;;7.60;97.30;;;;;;4878875;29;20451;-84
2024/03/03 07:39:22;;;;;;;16.33;4.03;;;7.70;97.30;;;;;;4871750;29;20542;-84
2024/03/03 07:42:14;;;;;;;4.40;3.27;;;7.90;97.30;;;;;;4876914;29;20956;-84
2024/03/03 07:44:53;;;;;;;8.50;2.80;;;8.00;97.30;;;;;;4868366;29;20427;-84
2024/03/03 07:47:21;;;;;;;8.87;3.57;;;8.20;97.30;;;;;;4875594;29;20466;-84
2024/03/03 07:49:53;;;;;;;3.87;3.47;;;8.30;97.30;;;;;;4876069;29;20525;-85
2024/03/03 07:53:13;;;;;;;8.80;4.80;;;8.40;97.30;;;;;;4875951;29;20431;-84
2024/03/03 07:56:12;;;;;;;4.87;4.20;;;8.50;97.30;;;;;;4837135;29;20527;-85
2024/03/03 07:58:51;;;;;;;4.83;2.67;;;8.70;97.30;;;;;;4877087;29;20438;-84
2024/03/03 08:01:35;;;;;;;4.20;3.73;;;8.90;97.30;;;;;;4872282;29;20440;-84
2024/03/03 08:04:15;;;;;;;;;;;;;;;;;;;;;
2024/03/03 08:06:43;;;;;;;8.90;5.40;;;9.10;97.30;;;;;;4876444;29;21032;-83
2024/03/03 08:09:13;;;;;;;2.90;2.60;;;9.30;97.30;;;;;;4893642;29;20434;-84
2024/03/03 08:12:02;;;;;;;9.93;6.03;;;9.40;97.30;;;;;;4873612;29;20466;-84
2024/03/03 08:14:33;;;;;;;5.57;5.20;;;9.60;97.30;;;;;;4822979;29;20433;-84
2024/03/03 08:17:13;;;;;;;10.67;4.60;;;9.70;97.30;;;;;;4883496;29;20537;-84
2024/03/03 08:19:42;;;;;;;5.90;4.57;;;9.80;97.30;;;;;;4877516;29;20881;-84
2024/03/03 08:22:13;;;;;;;3.33;3.17;;;10.00;97.30;;;;;;4877517;29;20985;-84
2024/03/03 08:25:02;;;;;;;6.47;4.00;;;10.10;97.30;;;;;;4884880;29;20444;-84
2024/03/03 08:27:34;;;;;;;8.43;2.80;;;10.10;97.30;;;;;;4877594;29;20822;-85
2024/03/03 08:33:23;;;;;;;8.93;5.43;;;10.20;97.30;;;;;;4867926;29;20458;-84
2024/03/03 08:35:52;;;;;;;11.43;4.67;;;10.30;97.30;;;;;;4875543;29;20418;-84
2024/03/03 08:38:34;;;;;;;;;;;;;;;;;;;;;
2024/03/03 08:41:03;;;;;;;9.63;5.70;;;10.50;97.30;;;;;;4876791;29;20422;-84
2024/03/03 08:43:43;;;;;;;9.30;4.63;;;10.70;97.30;;;;;;4875993;29;20438;-84
2024/03/03 08:46:51;;;;;;;4.50;4.20;;;10.80;97.30;;;;;;4866002;29;20525;-84
2024/03/03 08:49:33;;;;;;;17.47;3.70;;;10.90;97.30;;;;;;4831051;29;20996;-84
2024/03/03 08:52:22;;;;;;;3.57;3.37;;;11.00;97.30;;;;;;4837240;29;20794;-84
2024/03/03 08:55:13;;;;;;;10.50;5.40;;;11.20;97.30;;;;;;4807694;29;20433;-84
2024/03/03 08:58:14;;;;;;;3.10;2.90;;;11.30;97.30;;;;;;4827448;29;20486;-84
2024/03/03 09:00:42;;;;;;;8.20;4.63;;;11.40;97.30;;;;;;4836170;29;20982;-84
2024/03/03 09:03:13;;;;;;;6.70;2.60;;;11.50;97.30;;;;;;4824682;29;20455;-84
2024/03/03 09:05:42;;;;;;;8.33;4.23;;;11.60;97.30;;;;;;4869804;29;20478;-84
2024/03/03 09:08:32;;;;;;;5.37;5.07;;;11.80;97.30;;;;;;4876914;29;20442;-84
2024/03/03 09:11:06;;;;;;;3.80;2.40;;;11.90;97.30;;;;;;4877056;29;20422;-85
2024/03/03 09:14:03;;;;;;;12.97;7.47;;;12.00;97.30;;;;;;4877156;29;20791;-84
2024/03/03 09:16:53;;;;;;;9.30;4.57;;;12.00;97.30;;;;;;4872146;29;20859;-85
2024/03/03 09:19:22;;;;;;;13.77;5.17;;;12.20;97.30;;;;;;4869692;29;20415;-84
2024/03/03 09:21:53;;;;;;;11.40;6.73;;;12.30;97.30;;;;;;4875530;29;20433;-84
2024/03/03 09:24:24;;;;;;;10.17;5.17;;;12.40;97.30;;;;;;4877234;29;20426;-84
2024/03/03 09:27:13;;;;;;;14.10;3.60;;;12.50;97.30;;;;;;4876368;29;20473;-84
2024/03/03 09:30:13;;;;;;;6.20;4.13;;;12.60;97.30;;;;;;4876902;29;20415;-84
2024/03/03 09:32:52;;;;;;;6.10;4.17;;;12.70;97.30;;;;;;4875734;29;20454;-84
2024/03/03 09:35:41;;;;;;;3.30;2.30;;;12.70;97.30;;;;;;4869512;29;20477;-84
2024/03/03 09:42:07;;;;;;;6.20;4.87;;;12.90;97.30;;;;;;4876532;29;20466;-85
2024/03/03 09:45:04;;;;;;;7.63;4.93;;;12.90;97.30;;;;;;4887650;29;20482;-85
2024/03/03 09:47:34;;;;;;;14.60;5.10;;;13.00;97.30;;;;;;4870998;29;20472;-84
2024/03/03 09:50:03;;;;;;;10.83;4.23;;;13.10;97.30;;;;;;4882219;29;20815;-84
2024/03/03 09:52:44;;;;;;;7.47;4.57;;;13.20;97.30;;;;;;4883221;29;20769;-84
2024/03/03 09:55:13;;;;;;;7.60;4.30;;;13.10;97.30;;;;;;4886935;29;20948;-84
2024/03/03 10:04:14;;;;;;;7.33;4.03;;;13.30;97.30;;;;;;4864553;29;20430;-84
2024/03/03 10:08:13;;;;;;;5.03;2.90;;;13.30;97.30;;;;;;4878876;29;20481;-85
2024/03/03 10:10:33;;;;;;;20.73;4.13;;;13.40;97.30;;;;;;4861776;29;20450;-86
2024/03/03 10:13:04;;;;;;;7.73;3.80;;;13.30;97.30;;;;;;4879012;29;20474;-84
2024/03/03 10:15:33;;;;;;;9.73;5.30;;;13.30;97.30;;;;;;4879271;29;20653;-85
2024/03/03 10:18:53;;;;;;;13.40;5.07;;;13.40;97.30;;;;;;4885199;29;20486;-85
2024/03/03 10:21:02;;;;;;;6.10;5.80;;;13.60;97.30;;;;;;4872839;29;20434;-84
2024/03/03 10:23:34;;;;;;;12.87;6.50;;;13.60;97.30;;;;;;4879829;29;20434;-85
2024/03/03 10:26:12;;;;;;;4.33;4.00;;;13.60;97.30;;;;;;4878436;29;20471;-84
2024/03/03 10:29:33;;;;;;;11.63;6.30;;;13.70;97.30;;;;;;4887705;29;20441;-84
2024/03/03 10:32:24;;;;;;;;;;;;;;;;;;;;;
2024/03/03 10:35:12;;;;;;;5.53;3.97;;;13.60;97.30;;;;;;4887423;29;20421;-85
2024/03/03 10:38:02;;;;;;;9.90;5.30;;;13.60;97.30;;;;;;4875997;29;21016;-85
2024/03/03 10:40:53;;;;;;;5.57;4.73;;;13.60;97.30;;;;;;4874922;29;20430;-85
2024/03/03 10:43:31;;;;;;;6.27;2.93;;;13.70;97.30;;;;;;4856226;29;20437;-85
2024/03/03 10:46:04;;;;;;;7.10;5.20;;;13.60;97.30;;;;;;4878212;29;20566;-85
2024/03/03 10:48:33;;;;;;;3.90;3.27;;;13.60;97.30;;;;;;4885477;29;20466;-84
2024/03/03 10:51:13;;;;;;;5.83;4.20;;;13.60;97.30;;;;;;4887079;29;20513;-84
2024/03/03 10:54:01;;;;;;;7.23;5.70;;;13.60;97.30;;;;;;4885987;29;20441;-85
2024/03/03 10:56:43;;;;;;;9.23;6.17;;;13.70;97.30;;;;;;4869768;29;20765;-85
2024/03/03 10:59:14;;;;;;;5.97;3.97;;;13.80;97.30;;;;;;4890936;29;20448;-84
2024/03/03 11:01:44;;;;;;;6.27;4.47;;;14.10;97.30;;;;;;4874197;29;20442;-84
2024/03/03 11:04:39;;;;;;;;;;;;;;;;;;;;;
2024/03/03 11:07:22;;;;;;;10.00;5.87;;;14.00;97.30;;;;;;4878619;29;20501;-85
2024/03/03 11:10:04;;;;;;;11.10;5.40;;;14.00;97.30;;;;;;4874673;29;20878;-85
2024/03/03 11:13:04;;;;;;;3.67;3.33;;;14.50;97.30;;;;;;4891033;29;20508;-85
2024/03/03 11:15:43;;;;;;;4.50;3.80;;;14.70;96.10;;;;;;4901367;29;20429;-85
2024/03/03 11:18:42;;;;;;;13.10;5.63;;;14.90;96.60;;;;;;4896162;29;20448;-86
2024/03/03 11:21:47;;;;;;;;;;;;;;;;;;;;;
2024/03/03 11:24:45;;;;;;;;;;;;;;;;;;;;;
2024/03/03 11:27:34;;;;;;;;;;;;;;;;;;;;;
2024/03/03 11:30:04;;;;;;;8.10;5.17;;;15.00;93.40;;;;;;4895081;29;20422;-85
2024/03/03 11:32:35;;;;;;;3.80;3.60;;;15.00;93.90;;;;;;4883132;29;20508;-85
2024/03/03 11:35:12;;;;;;;8.20;4.70;;;15.10;94.70;;;;;;4879867;29;20867;-85
2024/03/03 11:37:43;;;;;;;8.23;4.70;;;15.20;94.00;;;;;;4874677;29;20506;-85
2024/03/03 11:40:53;;;;;;;12.57;5.03;;;15.10;93.60;;;;;;4877486;29;20525;-85
2024/03/03 11:43:41;;;;;;;3.43;2.97;;;15.20;93.20;;;;;;4883448;29;20737;-85
2024/03/03 11:46:46;;;;;;;9.80;5.73;;;15.30;93.50;;;;;;4880288;29;20468;-85
2024/03/03 11:49:11;;;;;;;7.00;4.30;;;15.40;93.10;;;;;;4887949;29;21065;-85
2024/03/03 11:51:37;;;;;;;7.17;4.67;;;15.40;93.20;;;;;;4885676;29;20472;-85
2024/03/03 11:54:09;;;;;;;6.43;4.77;;;15.50;92.00;;;;;;4909406;29;20181;-85
2024/03/03 11:56:45;;;;;;;16.63;5.40;;;15.70;92.30;;;;;;4887812;29;20292;-84
2024/03/03 11:59:10;;;;;;;6.70;4.27;;;15.90;92.60;;;;;;4866486;29;20869;-85
2024/03/03 12:01:41;;;;;;;8.80;5.03;;;15.90;91.70;;;;;;4887294;29;20453;-85
2024/03/03 12:04:08;;;;;;;5.13;3.77;;;15.90;92.40;;;;;;4887562;29;20245;-85
2024/03/03 12:06:34;;;;;;;11.50;3.23;;;15.90;92.60;;;;;;4882311;29;20474;-85
2024/03/03 12:09:03;;;;;;;14.23;5.80;;;16.10;92.60;;;;;;4875493;29;20816;-85
2024/03/03 12:11:30;;;;;;;16.07;5.87;;;16.40;92.90;;;;;;4884388;29;20277;-85
2024/03/03 12:13:59;;;;;;;10.17;5.40;;;16.60;90.90;;;;;;4877916;29;20419;-85
2024/03/03 12:16:25;;;;;;;7.93;3.40;;;16.40;90.60;;;;;;4882308;29;20469;-85
2024/03/03 12:18:50;;;;;;;5.90;5.60;;;16.20;91.40;;;;;;4883902;29;20532;-85
2024/03/03 12:21:19;;;;;;;6.80;4.30;;;16.10;91.70;;;;;;4877789;29;20178;-85
2024/03/03 12:23:45;;;;;;;5.17;2.60;;;16.30;92.20;;;;;;4890436;29;20280;-85
2024/03/03 12:26:10;;;;;;;9.10;5.20;;;16.30;90.60;;;;;;4894384;29;20548;-85
2024/03/03 12:28:37;;;;;;;7.10;4.40;;;16.20;91.00;;;;;;4879880;29;20206;-84
2024/03/03 12:31:03;;;;;;;9.97;5.80;;;16.40;91.00;;;;;;4877982;29;20211;-84
2024/03/03 12:33:28;;;;;;;5.20;3.13;;;16.60;91.60;;;;;;4876141;29;20639;-85
2024/03/03 12:35:55;;;;;;;7.77;3.37;;;16.80;90.80;;;;;;4908493;29;20235;-85
2024/03/03 12:38:20;;;;;;;7.03;4.33;;;16.80;91.30;;;;;;4895054;29;20277;-85
2024/03/03 12:40:47;;;;;;;5.10;4.20;;;16.90;91.30;;;;;;4903863;29;20433;-85
2024/03/03 12:43:16;;;;;;;9.07;4.60;;;17.00;90.30;;;;;;4902404;29;20186;-84
2024/03/03 12:45:44;;;;;;;4.23;2.50;;;17.10;90.10;;;;;;4895231;29;20466;-85
2024/03/03 12:48:11;;;;;;;8.90;5.27;;;16.90;90.40;;;;;;4894419;29;20470;-85
2024/03/03 12:50:36;;;;;;;10.37;4.83;;;17.00;91.30;;;;;;4896471;29;20451;-85
2024/03/03 12:53:02;;;;;;;8.80;4.10;;;17.20;89.40;;;;;;4893127;29;20446;-85
2024/03/03 12:55:28;;;;;;;9.87;4.30;;;17.40;89.90;;;;;;4888043;29;20264;-84
2024/03/03 12:57:54;;;;;;;6.27;4.13;;;17.40;88.60;;;;;;4886264;29;20549;-85
2024/03/03 13:00:19;;;;;;;3.57;3.43;;;17.50;88.20;;;;;;4882783;29;20190;-85
2024/03/03 13:02:45;;;;;;;14.10;4.13;;;17.70;88.70;;;;;;4883515;29;20433;-85
2024/03/03 13:05:16;;;;;;;10.60;4.30;;;18.00;88.10;;;;;;4882086;29;20264;-84
2024/03/03 13:07:46;;;;;;;6.13;5.87;;;18.00;86.70;;;;;;4880123;29;20249;-84
2024/03/03 13:10:22;;;;;;;5.60;3.60;;;17.90;87.10;;;;;;4875857;29;20802;-84
2024/03/03 13:12:55;;;;;;;9.90;4.60;;;17.90;87.30;;;;;;4883214;29;20964;-84
2024/03/03 13:15:29;;;;;;;5.57;4.67;;;17.90;87.10;;;;;;4888890;29;20438;-84
2024/03/03 13:18:05;;;;;;;14.70;4.57;;;18.00;87.00;;;;;;4882941;29;20474;-85
2024/03/03 13:20:32;;;;;;;5.87;3.47;;;18.00;87.20;;;;;;4872884;29;20431;-85
2024/03/03 13:23:11;;;;;;;9.33;4.20;;;18.10;87.00;;;;;;4897055;29;20426;-84
2024/03/03 13:25:37;;;;;;;7.20;3.57;;;18.10;86.90;;;;;;4875302;29;21008;-84
2024/03/03 13:28:11;;;;;;;6.33;4.87;;;17.90;86.40;;;;;;4883331;29;20448;-84
2024/03/03 13:30:37;;;;;;;6.90;3.73;;;17.90;87.60;;;;;;4875216;29;20454;-85
2024/03/03 13:33:02;;;;;;;5.63;4.10;;;18.20;86.70;;;;;;4882747;29;20453;-84
2024/03/03 13:35:32;;;;;;;5.70;3.10;;;18.20;86.40;;;;;;4871031;29;20186;-84
2024/03/03 13:37:59;;;;;;;6.90;3.80;;;18.30;86.30;;;;;;4873490;29;20305;-83
2024/03/03 13:40:24;;;;;;;5.97;4.03;;;18.50;85.80;;;;;;4867975;29;20490;-84
2024/03/03 13:42:50;;;;;;;5.80;2.70;;;18.40;85.60;;;;;;4868287;29;20682;-85
2024/03/03 13:45:16;;;;;;;11.70;5.10;;;18.50;85.90;;;;;;4876635;29;20204;-84
2024/03/03 13:47:42;;;;;;;2.87;2.70;;;18.50;86.30;;;;;;4885811;29;20473;-85
2024/03/03 13:50:10;;;;;;;6.20;4.60;;;18.50;86.10;;;;;;4882509;29;20199;-85
2024/03/03 13:52:37;;;;;;;5.07;4.77;;;18.50;85.30;;;;;;4872935;29;20186;-85
2024/03/03 13:55:03;;;;;;;6.93;3.47;;;18.50;84.90;;;;;;4882623;29;20460;-85
2024/03/03 13:57:29;;;;;;;10.87;3.90;;;18.30;85.40;;;;;;4884459;29;20442;-85
2024/03/03 13:59:54;;;;;;;4.47;2.80;;;18.10;85.90;;;;;;4873570;29;20442;-85
2024/03/03 14:02:20;;;;;;;17.97;4.90;;;18.20;86.40;;;;;;4872210;29;20198;-85
2024/03/03 14:04:45;;;;;;;8.63;5.53;;;18.40;86.60;;;;;;4872262;29;20294;-84
2024/03/03 14:07:11;;;;;;;7.83;4.67;;;18.40;85.60;;;;;;4882390;29;20197;-85
2024/03/03 14:09:37;;;;;;;13.43;5.53;;;18.50;85.00;;;;;;4872502;29;20608;-84
2024/03/03 14:12:02;;;;;;;11.43;5.83;;;18.40;85.50;;;;;;4898542;29;20195;-85
2024/03/03 14:14:28;;;;;;;7.37;5.40;;;18.40;85.10;;;;;;4880511;29;20265;-85
2024/03/03 14:16:54;;;;;;;4.23;3.97;;;18.40;85.50;;;;;;4872973;29;20218;-85
2024/03/03 14:19:19;;;;;;;8.53;4.60;;;18.40;85.40;;;;;;4876618;29;20193;-85
2024/03/03 14:21:49;;;;;;;10.40;3.83;;;18.40;85.10;;;;;;4882096;29;20185;-85
2024/03/03 14:24:15;;;;;;;6.43;4.27;;;18.40;85.40;;;;;;4876936;29;20653;-84
2024/03/03 14:26:41;;;;;;;6.47;4.50;;;18.40;85.20;;;;;;4871916;29;20506;-85
2024/03/03 14:29:07;;;;;;;7.27;4.07;;;18.30;85.00;;;;;;4910059;23;20588;-84
2024/03/03 14:31:32;;;;;;;11.80;6.10;;;18.50;85.00;;;;;;4890492;29;20176;-81
2024/03/03 14:33:58;;;;;;;4.67;3.90;;;18.40;84.50;;;;;;4884989;29;20189;-85
2024/03/03 14:36:23;;;;;;;5.70;3.87;;;18.50;84.70;;;;;;4908159;29;20700;-86
2024/03/03 14:38:51;;;;;;;5.17;3.60;;;18.70;83.90;;;;;;4879410;29;20293;-86
2024/03/03 14:41:17;;;;;;;8.93;4.43;;;18.60;83.90;;;;;;4875930;29;20287;-85
2024/03/03 14:43:45;;;;;;;9.00;4.53;;;18.70;83.90;;;;;;4883808;29;20948;-86
2024/03/03 14:46:11;;;;;;;6.77;3.80;;;18.80;83.60;;;;;;4895681;29;20209;-85
2024/03/03 14:48:37;;;;;;;7.13;2.83;;;18.80;84.10;;;;;;4880577;29;20442;-84
2024/03/03 14:51:03;;;;;;;8.90;5.60;;;18.90;83.20;;;;;;4884665;29;20432;-85
2024/03/03 14:53:32;;;;;;;9.23;4.20;;;18.80;83.40;;;;;;4885754;29;20808;-86
2024/03/03 14:56:07;;;;;;;4.47;2.50;;;18.50;83.60;;;;;;4888220;29;20185;-85
2024/03/03 14:58:33;;;;;;;8.83;4.63;;;18.50;83.50;;;;;;4883604;29;20433;-84
2024/03/03 15:01:34;;;;;;;12.93;5.13;;;18.10;83.90;;;;;;4913473;29;20421;-87
2024/03/03 15:04:52;;;;;;;3.43;3.07;;;18.10;84.50;;;;;;4908232;29;20180;-87
2024/03/03 15:07:14;;;;;;;6.57;3.43;;;18.40;84.00;;;;;;4923263;29;20487;-84
2024/03/03 15:09:40;;;;;;;6.60;3.50;;;18.40;84.00;;;;;;4899657;23;20500;-62
2024/03/03 15:12:06;;;;;;;9.97;4.30;;;18.40;83.90;;;;;;4889983;29;20466;-61
2024/03/03 15:14:31;;;;;;;7.20;4.20;;;18.30;83.90;;;;;;4870260;29;20446;-62
2024/03/03 15:16:57;;;;;;;10.03;4.40;;;18.10;84.10;;;;;;4884757;29;20460;-62
2024/03/03 15:19:23;;;;;;;5.07;3.77;;;18.10;84.10;;;;;;4891264;29;20190;-62
2024/03/03 15:21:48;;;;;;;4.40;2.70;;;17.90;84.50;;;;;;4872410;29;20202;-62
2024/03/03 15:24:14;;;;;;;9.57;4.47;;;18.00;84.40;;;;;;4893808;29;20181;-62
2024/03/03 15:26:40;;;;;;;5.30;3.97;;;17.70;84.80;;;;;;4892191;29;20670;-62
2024/03/03 15:29:05;;;;;;;5.03;4.53;;;17.80;84.90;;;;;;4890490;29;20189;-63
2024/03/03 15:31:31;;;;;;;4.97;4.10;;;17.80;85.00;;;;;;4876106;29;20284;-64
2024/03/03 15:33:57;;;;;;;11.07;4.07;;;17.70;85.20;;;;;;4868018;29;20654;-65
2024/03/03 15:36:23;;;;;;;6.40;3.97;;;17.80;84.70;;;;;;4876746;29;20441;-65
2024/03/03 15:38:49;;;;;;;4.90;3.43;;;17.90;84.50;;;;;;4882798;29;20209;-64
2024/03/03 15:41:14;;;;;;;5.17;2.53;;;18.00;84.80;;;;;;4892346;29;20746;-65
2024/03/03 15:43:40;;;;;;;7.23;4.03;;;18.00;84.60;;;;;;4875479;29;20189;-64
2024/03/03 15:46:06;;;;;;;5.70;3.83;;;17.80;84.70;;;;;;4875964;29;20359;-65
2024/03/03 15:48:32;;;;;;;7.37;2.50;;;17.70;85.40;;;;;;4882454;29;20490;-65
2024/03/03 15:50:57;;;;;;;6.53;4.00;;;17.80;85.00;;;;;;4883600;29;20201;-64
2024/03/03 15:53:23;;;;;;;13.47;4.40;;;18.00;84.70;;;;;;4872955;29;20427;-65
2024/03/03 15:55:49;;;;;;;6.87;3.90;;;18.00;84.90;;;;;;4891679;29;20523;-64
2024/03/03 15:58:15;;;;;;;4.10;3.13;;;18.00;84.50;;;;;;4888131;29;20194;-65
2024/03/03 16:00:40;;;;;;;5.60;3.30;;;17.70;85.40;;;;;;4871951;29;20451;-65
2024/03/03 16:03:06;;;;;;;6.47;5.70;;;17.80;85.20;;;;;;4877482;29;20690;-65
2024/03/03 16:05:32;;;;;;;5.00;3.23;;;18.00;85.00;;;;;;4893501;29;20201;-64
2024/03/03 16:07:57;;;;;;;11.33;4.73;;;18.10;84.60;;;;;;4884543;29;20563;-65
2024/03/03 16:10:23;;;;;;;6.50;3.37;;;18.20;84.30;;;;;;4891650;29;20521;-65
2024/03/03 16:12:49;;;;;;;3.23;3.00;;;18.10;84.20;;;;;;4866766;29;20646;-65
2024/03/03 16:15:14;;;;;;;5.60;3.73;;;17.80;84.40;;;;;;4884248;29;20181;-65
2024/03/03 16:17:40;;;;;;;5.93;4.17;;;17.30;85.30;;;;;;4889607;29;20186;-65
2024/03/03 16:20:09;;;;;;;7.50;4.90;;;16.80;86.40;;;;;;4894133;29;20196;-65
2024/03/03 16:22:36;;;;;;;11.70;4.67;;;16.30;87.40;;;;;;4895079;29;20191;-65
2024/03/03 16:25:01;;;;;;;2.60;2.40;;;15.90;88.50;;;;;;4894515;29;20828;-65
2024/03/03 16:27:27;;;;;;;5.80;4.67;;;15.40;89.70;;;;;;4888419;29;20943;-65
2024/03/03 16:29:53;;;;;;;9.17;3.40;;;14.90;90.80;;;;;;4877861;29;20264;-65
2024/03/03 16:32:18;;;;;;;6.13;4.30;;;14.60;91.70;;;;;;4862501;29;20544;-65
2024/03/03 16:34:44;;;;;;;4.27;3.53;;;14.20;92.70;;;;;;4894250;29;20816;-64
2024/03/03 16:37:10;;;;;;;8.47;5.30;;;14.10;93.40;;;;;;4886277;29;20194;-65
2024/03/03 16:39:35;;;;;;;4.10;3.90;;;13.90;93.80;;;;;;4871401;29;20907;-62
2024/03/03 16:42:01;;;;;;;10.93;5.30;;;13.70;94.40;;;;;;4891675;29;20540;-62
2024/03/03 16:44:27;;;;;;;8.83;4.00;;;13.60;95.00;;;;;;4886172;29;20560;-62
2024/03/03 16:46:53;;;;;;;8.10;3.17;;;13.40;95.40;;;;;;4869169;29;20233;-63
2024/03/03 16:49:18;;;;;;;6.90;3.93;;;13.30;95.70;;;;;;4885644;29;20241;-62
2024/03/03 16:51:47;;;;;;;5.27;4.30;;;13.20;96.20;;;;;;4877217;29;20861;-62
2024/03/03 16:54:12;;;;;;;4.67;4.37;;;13.10;96.50;;;;;;4868739;29;20181;-62
2024/03/03 16:56:38;;;;;;;9.13;4.00;;;13.00;96.80;;;;;;4893729;29;20632;-62
2024/03/03 16:59:03;;;;;;;12.13;3.30;;;12.80;97.10;;;;;;4892478;29;20475;-62
2024/03/03 17:01:29;;;;;;;7.50;4.03;;;12.80;97.20;;;;;;4895170;29;20224;-62
2024/03/03 17:03:55;;;;;;;5.97;4.83;;;12.70;97.30;;;;;;4894066;29;20212;-62
2024/03/03 17:06:20;;;;;;;7.53;4.73;;;12.60;97.30;;;;;;4879758;29;20193;-62
2024/03/03 17:08:46;;;;;;;5.03;3.37;;;12.50;97.30;;;;;;4894745;29;20181;-62
2024/03/03 17:11:12;;;;;;;3.73;3.13;;;12.40;97.30;;;;;;4878247;29;20721;-63
2024/03/03 17:13:37;;;;;;;8.87;4.57;;;12.30;97.30;;;;;;4889110;29;20431;-63
2024/03/03 17:16:04;;;;;;;5.53;3.37;;;12.20;97.30;;;;;;4892826;29;20189;-63
2024/03/03 17:18:31;;;;;;;9.83;4.53;;;12.20;97.30;;;;;;4881686;29;20181;-63
2024/03/03 17:20:56;;;;;;;13.03;5.53;;;12.10;97.30;;;;;;4873968;29;20568;-63
2024/03/03 17:23:24;;;;;;;5.13;4.40;;;12.00;97.30;;;;;;4894746;29;20985;-63
2024/03/03 17:25:50;;;;;;;7.53;4.07;;;11.90;97.30;;;;;;4870692;29;20777;-63
2024/03/03 17:28:15;;;;;;;4.53;3.53;;;11.90;97.30;;;;;;4876629;29;20449;-63
2024/03/03 17:30:41;;;;;;;6.50;5.87;;;11.80;97.30;;;;;;4884709;29;20217;-63
2024/03/03 17:33:06;;;;;;;6.33;3.90;;;11.80;97.30;;;;;;4865500;29;20186;-63
2024/03/03 17:35:32;;;;;;;7.27;4.07;;;11.70;97.30;;;;;;4879484;29;20189;-63
2024/03/03 17:37:58;;;;;;;3.00;2.80;;;11.60;97.30;;;;;;4887131;29;20280;-63
2024/03/03 17:40:27;;;;;;;4.60;3.70;;;11.60;97.30;;;;;;4863007;29;21191;-63
2024/03/03 17:42:52;;;;;;;7.30;3.73;;;11.50;97.30;;;;;;4887187;29;20517;-64
2024/03/03 17:45:18;;;;;;;6.37;4.50;;;11.40;97.30;;;;;;4872658;29;20553;-63
2024/03/03 17:47:44;;;;;;;3.83;3.17;;;11.40;97.30;;;;;;4882075;29;20189;-63
2024/03/03 17:50:10;;;;;;;4.20;3.90;;;11.30;97.30;;;;;;4864161;29;20260;-64
2024/03/03 17:52:35;;;;;;;14.43;6.00;;;11.30;97.30;;;;;;4878958;29;20181;-63
2024/03/03 17:55:01;;;;;;;6.80;5.97;;;11.20;97.30;;;;;;4880554;29;20817;-63
2024/03/03 17:57:26;;;;;;;4.83;3.60;;;11.20;97.30;;;;;;4889046;29;20177;-63
2024/03/03 17:59:52;;;;;;;5.77;3.83;;;11.10;97.30;;;;;;4888300;29;20189;-63
2024/03/03 18:02:17;;;;;;;3.10;2.90;;;11.00;97.30;;;;;;4881613;29;20307;-62
2024/03/03 18:04:43;;;;;;;8.30;4.60;;;11.00;97.30;;;;;;4889548;29;20247;-64
2024/03/03 18:07:08;;;;;;;7.57;5.53;;;11.00;97.30;;;;;;4884999;29;20220;-63
2024/03/03 18:09:35;;;;;;;4.13;3.03;;;10.90;97.30;;;;;;4867373;29;20612;-63
2024/03/03 18:12:01;;;;;;;3.87;2.63;;;10.90;97.30;;;;;;4881931;29;20581;-63
2024/03/03 18:14:26;;;;;;;7.10;3.33;;;10.80;97.30;;;;;;4892934;29;20425;-64
2024/03/03 18:16:52;;;;;;;3.63;3.43;;;10.80;97.30;;;;;;4887448;29;20216;-64
2024/03/03 18:19:18;;;;;;;6.27;2.97;;;10.80;97.30;;;;;;4887766;29;20240;-64
2024/03/03 18:21:44;;;;;;;10.33;5.33;;;10.70;97.30;;;;;;4862882;29;20217;-65
2024/03/03 18:24:09;;;;;;;8.10;5.10;;;10.70;97.30;;;;;;4867957;29;20438;-64
2024/03/03 18:26:35;;;;;;;7.33;4.43;;;10.70;97.30;;;;;;4860885;29;20465;-64
2024/03/03 18:29:03;;;;;;;3.17;3.03;;;10.70;97.30;;;;;;4850751;29;20197;-64
2024/03/03 18:31:29;;;;;;;4.40;2.80;;;10.70;97.30;;;;;;4858261;29;20214;-64
2024/03/03 18:33:54;;;;;;;8.53;3.90;;;10.70;97.30;;;;;;4850078;29;20430;-64
2024/03/03 18:36:20;;;;;;;8.00;4.17;;;10.70;97.30;;;;;;4856624;29;20270;-64
2024/03/03 18:38:45;;;;;;;4.20;2.93;;;10.70;97.30;;;;;;4851172;29;20339;-64
2024/03/03 18:41:11;;;;;;;8.30;4.07;;;10.60;97.30;;;;;;4840464;29;20246;-64